METAR Data
IDs: Format: Raw Decoded Include TAF

Data at: 0121 UTC 24 May 2019

METAR for:PADQ (Kodiak Arpt, AK, US)
Text:PADQ 240116Z 31007KT 10SM -RA BKN027 OVC035 10/07 A3008 RMK AO2 P0000 T01000067
Temperature: 10.0°C ( 50°F)
Dewpoint: 6.7°C ( 44°F) [RH = 80%]
Pressure (altimeter):30.08 inches Hg (1018.7 mb)
Winds:from the NW (310 degrees) at 8 MPH (7 knots; 3.6 m/s)
Visibility:10 or more sm (16+ km)
Ceiling:2700 feet AGL
Clouds: broken clouds at 2700 feet AGL, overcast cloud deck at 3500 feet AGL
Weather:-RA (light rain)
Text:PADQ 240109Z 31006KT 10SM -RA SCT026 OVC035 10/07 A3008 RMK AO2 P0000 T01000072
Temperature: 10.0°C ( 50°F)
Dewpoint: 7.2°C ( 45°F) [RH = 83%]
Pressure (altimeter):30.08 inches Hg (1018.7 mb)
Winds:from the NW (310 degrees) at 7 MPH (6 knots; 3.1 m/s)
Visibility:10 or more sm (16+ km)
Ceiling:3500 feet AGL
Clouds: scattered clouds at 2600 feet AGL, overcast cloud deck at 3500 feet AGL
Weather:-RA (light rain)
Text:PADQ 240053Z VRB04KT 5SM -RA BKN026 OVC036 09/07 A3008 RMK AO2 SLP185 P0003 T00940067
Temperature: 9.4°C ( 49°F)
Dewpoint: 6.7°C ( 44°F) [RH = 83%]
Pressure (altimeter):30.08 inches Hg (1018.7 mb) [Sea level pressure: 1018.5 mb]
Winds:variable direction winds at 5 MPH (4 knots; 2.1 m/s)
Visibility: 5 sm ( 8 km)
Ceiling:2600 feet AGL
Clouds: broken clouds at 2600 feet AGL, overcast cloud deck at 3600 feet AGL
Weather:-RA (light rain)
Text:PADQ 240036Z 00000KT 7SM -RA SCT010 BKN024 OVC045 09/07 A3007 RMK AO2 P0002 T00940072
Temperature: 9.4°C ( 49°F)
Dewpoint: 7.2°C ( 45°F) [RH = 86%]
Pressure (altimeter):30.07 inches Hg (1018.4 mb)
Winds:calm
Visibility: 7 sm ( 11 km)
Ceiling:2400 feet AGL
Clouds: scattered clouds at 1000 feet AGL, broken clouds at 2400 feet AGL, overcast cloud deck at 4500 feet AGL
Weather:-RA (light rain)
Text:PADQ 240017Z 09005KT 5SM -RA BR BKN012 BKN020 OVC049 09/07 A3006 RMK AO2 P0002 T00940072
Temperature: 9.4°C ( 49°F)
Dewpoint: 7.2°C ( 45°F) [RH = 86%]
Pressure (altimeter):30.06 inches Hg (1018.0 mb)
Winds:from the E (90 degrees) at 6 MPH (5 knots; 2.6 m/s)
Visibility: 5 sm ( 8 km)
Ceiling:1200 feet AGL
Clouds: broken clouds at 1200 feet AGL, broken clouds at 2000 feet AGL, overcast cloud deck at 4900 feet AGL
Weather:-RA BR (light rain, mist)
Text:PADQ 232353Z 12005KT 7SM -RA SCT017 BKN048 OVC055 09/07 A3004 RMK AO2 RAB2256E06B26 SLP174 P0002 60006 T00940072 10100 20083 51032
Temperature: 9.4°C ( 49°F)
Dewpoint: 7.2°C ( 45°F) [RH = 86%]
Pressure (altimeter):30.04 inches Hg (1017.4 mb) [Sea level pressure: 1017.4 mb]
Winds:from the ESE (120 degrees) at 6 MPH (5 knots; 2.6 m/s)
Visibility: 7 sm ( 11 km)
Ceiling:4800 feet AGL
Clouds: scattered clouds at 1700 feet AGL, broken clouds at 4800 feet AGL, overcast cloud deck at 5500 feet AGL
Weather:-RA (light rain)
Text:PADQ 232323Z 11005KT 10SM FEW021 BKN043 OVC065 09/07 A3003 RMK AO2 RAB2256E06 P0000 T00940072
Temperature: 9.4°C ( 49°F)
Dewpoint: 7.2°C ( 45°F) [RH = 86%]
Pressure (altimeter):30.03 inches Hg (1017.0 mb)
Winds:from the ESE (110 degrees) at 6 MPH (5 knots; 2.6 m/s)
Visibility:10 or more sm (16+ km)
Ceiling:4300 feet AGL
Clouds: few clouds at 2100 feet AGL, broken clouds at 4300 feet AGL, overcast cloud deck at 6500 feet AGL
Text:PADQ 232253Z 13007KT 10SM SCT015 BKN021 OVC034 09/07 A3002 RMK AO2 RAB20E44 SLP165 P0000 T00940072
Temperature: 9.4°C ( 49°F)
Dewpoint: 7.2°C ( 45°F) [RH = 86%]
Pressure (altimeter):30.02 inches Hg (1016.7 mb) [Sea level pressure: 1016.5 mb]
Winds:from the SE (130 degrees) at 8 MPH (7 knots; 3.6 m/s)
Visibility:10 or more sm (16+ km)
Ceiling:2100 feet AGL
Clouds: scattered clouds at 1500 feet AGL, broken clouds at 2100 feet AGL, overcast cloud deck at 3400 feet AGL
Text:PADQ 232153Z 17007KT 10SM BKN016 OVC023 09/07 A2999 RMK AO2 RAE28 SLP155 P0001 T00940072
Temperature: 9.4°C ( 49°F)
Dewpoint: 7.2°C ( 45°F) [RH = 86%]
Pressure (altimeter):29.99 inches Hg (1015.7 mb) [Sea level pressure: 1015.5 mb]
Winds:from the S (170 degrees) at 8 MPH (7 knots; 3.6 m/s)
Visibility:10 or more sm (16+ km)
Ceiling:1600 feet AGL
Clouds: broken clouds at 1600 feet AGL, overcast cloud deck at 2300 feet AGL
Text:PADQ 232053Z 05005KT 5SM -RA FEW012 BKN016 OVC023 09/07 A2995 RMK AO2 RAE27B43 SLP142 P0003 60003 T00940067 51033
Temperature: 9.4°C ( 49°F)
Dewpoint: 6.7°C ( 44°F) [RH = 83%]
Pressure (altimeter):29.95 inches Hg (1014.3 mb) [Sea level pressure: 1014.2 mb]
Winds:from the NE (50 degrees) at 6 MPH (5 knots; 2.6 m/s)
Visibility: 5 sm ( 8 km)
Ceiling:1600 feet AGL
Clouds: few clouds at 1200 feet AGL, broken clouds at 1600 feet AGL, overcast cloud deck at 2300 feet AGL
Weather:-RA (light rain)
Text:PADQ 232007Z 01003KT 3SM -RA OVC023 09/06 A2993 RMK AO2 P0001 T00890061
Temperature: 8.9°C ( 48°F)
Dewpoint: 6.1°C ( 43°F) [RH = 83%]
Pressure (altimeter):29.93 inches Hg (1013.6 mb)
Winds:from the N (10 degrees) at 3 MPH (3 knots; 1.5 m/s)
Visibility: 3 sm ( 5 km)
Ceiling:2300 feet AGL
Clouds: overcast cloud deck at 2300 feet AGL
Weather:-RA (light rain)
Text:PADQ 231959Z 03004KT 2 1/2SM -RA FEW016 BKN023 OVC028 09/06 A2992 RMK AO2 P0001 T00890061
Temperature: 8.9°C ( 48°F)
Dewpoint: 6.1°C ( 43°F) [RH = 83%]
Pressure (altimeter):29.92 inches Hg (1013.3 mb)
Winds:from the NNE (30 degrees) at 5 MPH (4 knots; 2.1 m/s)
Visibility: 2.50 sm ( 4.02 km)
Ceiling:2300 feet AGL
Clouds: few clouds at 1600 feet AGL, broken clouds at 2300 feet AGL, overcast cloud deck at 2800 feet AGL
Weather:-RA (light rain)
Text:PADQ 231953Z 01005KT 6SM -RA BKN012 OVC027 09/06 A2992 RMK AO2 RAB04E30B48 SLP132 P0000 T00890061
Temperature: 8.9°C ( 48°F)
Dewpoint: 6.1°C ( 43°F) [RH = 83%]
Pressure (altimeter):29.92 inches Hg (1013.3 mb) [Sea level pressure: 1013.2 mb]
Winds:from the N (10 degrees) at 6 MPH (5 knots; 2.6 m/s)
Visibility: 6 sm ( 10 km)
Ceiling:1200 feet AGL
Clouds: broken clouds at 1200 feet AGL, overcast cloud deck at 2700 feet AGL
Weather:-RA (light rain)

TAF for:PADQ (Kodiak Arpt, AK, US) issued at 2339 UTC 23 May 2019
Text:PADQ 232339Z 2400/2424 12005KT P6SM SCT020 BKN045
Forecast period:0000 to 0900 UTC 24 May 2019
Forecast type:FROM: standard forecast or significant change
Winds:from the ESE (120 degrees) at 6 MPH (5 knots; 2.6 m/s)
Visibility:6 or more sm (10+ km)
Ceiling:4500 feet AGL
Clouds: scattered clouds at 2000 feet AGL, broken clouds at 4500 feet AGL
Text:FM240900 28005KT P6SM SCT030
Forecast period:0900 to 1800 UTC 24 May 2019
Forecast type:FROM: standard forecast or significant change
Winds:from the W (280 degrees) at 6 MPH (5 knots; 2.6 m/s)
Visibility:6 or more sm (10+ km)
Ceiling:at least 12,000 feet AGL
Clouds: scattered clouds at 3000 feet AGL
Text:FM241800 12005KT P6SM SKC
Forecast period:1800 UTC 24 May 2019 to 0000 UTC 25 May 2019
Forecast type:FROM: standard forecast or significant change
Winds:from the ESE (120 degrees) at 6 MPH (5 knots; 2.6 m/s)
Visibility:6 or more sm (10+ km)
Ceiling:at least 12,000 feet AGL
Clouds:clear skies